Time;durP1;ratioP1;P1;durP2;ratioP2;P2;SDS_P1;SDS_P2;PMS_P1;PMS_P2;Temp;Humidity;BMP_temperature;BMP_pressure;BME280_temperature;BME280_humidity;BME280_pressure;Samples;Min_cycle;Max_cycle;Signal;HPM_P1;HPM_P2
2023/10/10 00:00:27;;;;;;;6.33;3.17;;;;;;;15.92;53.03;95139.41;5075551;28;20441;-81
2023/10/10 00:02:55;;;;;;;8.73;3.70;;;;;;;15.74;54.34;95142.09;5075874;28;20516;-81
2023/10/10 00:05:33;;;;;;;7.93;3.27;;;;;;;15.74;55.33;95135.97;5075633;28;20444;-80
2023/10/10 00:08:05;;;;;;;5.73;3.60;;;;;;;15.48;55.84;95136.75;5075302;28;20469;-81
2023/10/10 00:10:32;;;;;;;7.43;3.30;;;;;;;15.43;56.48;95141.66;5075339;28;20507;-79
2023/10/10 00:13:00;;;;;;;3.43;2.73;;;;;;;15.48;56.00;95136.75;5075986;28;20503;-81
2023/10/10 00:15:33;;;;;;;6.57;3.50;;;;;;;15.28;57.27;95137.88;5075751;28;20792;-82
2023/10/10 00:18:03;;;;;;;5.47;3.60;;;;;;;15.33;57.88;95137.47;5075698;28;20449;-81
2023/10/10 00:20:41;;;;;;;7.77;4.40;;;;;;;15.23;57.80;95140.16;5075358;28;20456;-82
2023/10/10 00:23:10;;;;;;;4.27;3.30;;;;;;;15.16;58.60;95131.19;5074786;28;20476;-81
2023/10/10 00:25:38;;;;;;;9.13;3.87;;;;;;;14.88;59.33;95138.34;5075404;28;20458;-82
2023/10/10 00:28:17;;;;;;;7.17;4.13;;;;;;;14.60;59.64;95119.09;5074980;28;20452;-81
2023/10/10 00:30:45;;;;;;;6.57;4.00;;;;;;;14.47;60.75;95129.19;5074925;28;20505;-83
2023/10/10 00:33:14;;;;;;;9.30;4.10;;;;;;;14.40;60.50;95128.06;5056334;28;20494;-81
2023/10/10 00:35:42;;;;;;;4.57;3.40;;;;;;;14.23;61.32;95117.31;5075515;28;20459;-82
2023/10/10 00:38:13;;;;;;;6.27;3.83;;;;;;;14.33;61.24;95132.28;5075390;28;20931;-82
2023/10/10 00:40:40;;;;;;;6.47;4.57;;;;;;;14.06;61.47;95131.28;5075728;28;20487;-80
2023/10/10 00:43:16;;;;;;;8.13;4.47;;;;;;;14.33;61.21;95121.72;5075361;28;20499;-81
2023/10/10 00:45:43;;;;;;;9.90;4.20;;;;;;;14.47;61.16;95113.34;5074921;28;20506;-82
2023/10/10 00:48:16;;;;;;;6.10;3.97;;;;;;;14.44;61.41;95103.06;5074540;28;20448;-81
2023/10/10 00:50:47;;;;;;;8.90;4.20;;;;;;;14.57;61.30;95119.38;5074736;28;20475;-82
2023/10/10 00:53:15;;;;;;;6.47;4.10;;;;;;;14.70;60.93;95124.28;5074316;28;21011;-81
2023/10/10 00:55:47;;;;;;;8.50;4.50;;;;;;;14.81;60.45;95118.81;5038700;28;20444;-82
2023/10/10 00:58:22;;;;;;;7.03;4.60;;;;;;;14.90;60.05;95117.06;5055476;28;20451;-82
2023/10/10 01:00:52;;;;;;;11.43;4.20;;;;;;;14.99;59.89;95126.72;5074350;28;20484;-82
2023/10/10 01:03:21;;;;;;;8.50;4.90;;;;;;;15.00;60.08;95125.75;5074676;28;20870;-81
2023/10/10 01:05:52;;;;;;;10.20;4.50;;;;;;;15.07;60.07;95135.59;5074407;28;20446;-82
2023/10/10 01:08:19;;;;;;;8.70;4.47;;;;;;;15.09;60.18;95130.16;5073971;28;20480;-82
2023/10/10 01:10:47;;;;;;;10.50;4.83;;;;;;;15.14;59.39;95127.88;5074110;28;20937;-81
2023/10/10 01:13:16;;;;;;;5.13;3.90;;;;;;;15.20;59.10;95119.31;5073791;28;20497;-82
2023/10/10 01:15:48;;;;;;;8.33;3.93;;;;;;;15.23;59.27;95119.00;5073829;28;20938;-82
2023/10/10 01:18:15;;;;;;;6.93;3.70;;;;;;;15.21;58.45;95109.56;5073739;28;20444;-81
2023/10/10 01:20:46;;;;;;;9.63;4.10;;;;;;;15.28;58.86;95107.97;5073846;28;20529;-83
2023/10/10 01:23:15;;;;;;;5.77;3.60;;;;;;;15.32;58.24;95104.88;5074082;28;20441;-81
2023/10/10 01:25:42;;;;;;;6.17;3.83;;;;;;;15.37;58.33;95113.19;5074107;28;20511;-82
2023/10/10 01:28:33;;;;;;;14.30;3.97;;;;;;;15.42;58.16;95110.91;5074240;28;20449;-82
2023/10/10 01:31:05;;;;;;;8.70;4.37;;;;;;;15.37;59.31;95130.88;5074025;28;20450;-82
2023/10/10 01:33:47;;;;;;;5.70;4.47;;;;;;;15.39;59.31;95132.38;5073887;28;20485;-82
2023/10/10 01:36:19;;;;;;;7.50;3.60;;;;;;;15.42;59.03;95132.06;5074293;28;20453;-81
2023/10/10 01:39:20;;;;;;;6.33;3.87;;;;;;;15.42;59.35;95129.44;5074238;28;20465;-82
2023/10/10 01:41:49;;;;;;;13.77;4.20;;;;;;;15.43;59.12;95128.44;5011582;28;20453;-81
2023/10/10 01:44:18;;;;;;;5.20;3.33;;;;;;;15.44;59.71;95137.19;5011695;28;20455;-82
2023/10/10 01:46:45;;;;;;;6.60;3.90;;;;;;;15.38;59.82;95141.28;5011715;28;20451;-81
2023/10/10 01:49:20;;;;;;;7.13;3.93;;;;;;;15.25;60.00;95145.31;4995418;28;20462;-83
2023/10/10 01:51:54;;;;;;;7.07;4.10;;;;;;;15.26;60.70;95145.16;5011648;28;20448;-82
2023/10/10 01:54:21;;;;;;;11.43;3.90;;;;;;;15.05;61.14;95144.66;4980182;28;20487;-83
2023/10/10 01:56:51;;;;;;;6.87;3.80;;;;;;;15.02;61.83;95139.63;5011455;28;20499;-80
2023/10/10 01:59:24;;;;;;;7.03;4.07;;;;;;;15.00;62.01;95142.44;5011861;28;20444;-82
2023/10/10 02:01:52;;;;;;;8.60;4.50;;;;;;;15.03;62.11;95136.00;5011315;28;20498;-82
2023/10/10 02:04:27;;;;;;;7.50;4.40;;;;;;;15.04;62.14;95142.97;5011707;28;20866;-82
2023/10/10 02:06:57;;;;;;;9.30;4.83;;;;;;;15.09;62.02;95140.72;5011596;28;20450;-82
2023/10/10 02:09:33;;;;;;;6.97;5.13;;;;;;;15.11;61.61;95139.56;4962834;28;21065;-82
2023/10/10 02:12:08;;;;;;;13.47;4.03;;;;;;;15.16;61.12;95141.75;5010647;28;20861;-82
2023/10/10 02:14:36;;;;;;;8.03;4.00;;;;;;;15.19;61.27;95138.81;5011367;28;20492;-82
2023/10/10 02:17:19;;;;;;;8.20;4.07;;;;;;;15.17;61.25;95138.97;5012339;28;20472;-81
2023/10/10 02:19:53;;;;;;;11.60;4.43;;;;;;;15.19;61.35;95152.84;5072930;28;20766;-81
2023/10/10 02:22:33;;;;;;;9.60;4.43;;;;;;;15.19;61.22;95150.22;5073092;28;20448;-81
2023/10/10 02:27:54;;;;;;;6.27;4.20;;;;;;;15.28;60.36;95148.47;5072970;28;20439;-82
2023/10/10 02:30:34;;;;;;;10.20;4.80;;;;;;;15.30;60.59;95143.84;5073547;28;20843;-82
2023/10/10 02:33:08;;;;;;;15.33;5.40;;;;;;;15.29;60.63;95139.56;5073096;28;20568;-82
2023/10/10 02:35:54;;;;;;;15.30;6.40;;;;;;;15.29;60.26;95136.91;5072512;28;20473;-80
2023/10/10 02:38:24;;;;;;;11.00;5.03;;;;;;;15.30;61.69;95135.09;5043173;28;20446;-81
2023/10/10 02:40:55;;;;;;;10.27;3.90;;;;;;;15.24;63.48;95133.06;5037634;28;20519;-82
2023/10/10 02:43:33;;;;;;;7.97;4.60;;;;;;;15.23;63.99;95132.22;5072948;28;20446;-82
2023/10/10 02:46:00;;;;;;;5.83;4.53;;;;;;;15.17;64.66;95132.84;5073661;28;20505;-80
2023/10/10 02:48:34;;;;;;;9.60;3.80;;;;;;;15.17;65.18;95130.19;5073862;28;20503;-82
2023/10/10 02:51:03;;;;;;;7.10;3.77;;;;;;;15.17;65.74;95127.56;5072702;28;20903;-82
2023/10/10 02:53:32;;;;;;;15.97;4.50;;;;;;;15.16;65.51;95124.09;5073589;28;20484;-82
2023/10/10 02:56:01;;;;;;;10.53;3.90;;;;;;;15.08;65.57;95117.91;5073825;28;20474;-82
2023/10/10 02:58:38;;;;;;;10.93;4.63;;;;;;;15.12;65.50;95111.34;5073083;28;20944;-82
2023/10/10 03:01:10;;;;;;;7.27;4.17;;;;;;;15.11;65.61;95109.69;5073043;28;20508;-81
2023/10/10 03:03:41;;;;;;;7.03;4.07;;;;;;;15.13;nan;95123.56;5072909;28;20979;-81
2023/10/10 03:06:10;;;;;;;11.47;4.57;;;;;;;15.15;66.40;95113.66;5072744;28;20930;-81
2023/10/10 03:08:51;;;;;;;7.03;4.10;;;;;;;15.08;66.92;95112.63;5073882;28;20443;-82
2023/10/10 03:11:35;;;;;;;10.40;4.20;;;;;;;15.08;67.17;95117.91;5073794;28;20441;-81
2023/10/10 03:14:07;;;;;;;6.30;5.70;;;;;;;15.12;67.23;95124.53;5073049;28;20478;-82
2023/10/10 03:16:59;;;;;;;12.80;4.77;;;;;;;15.19;67.31;95125.59;5075314;28;20478;-82
2023/10/10 03:19:33;;;;;;;13.73;4.43;;;;;;;15.26;67.40;95116.06;5072494;28;20447;-82
2023/10/10 03:27:49;;;;;;;11.20;4.60;;;;;;;15.35;67.32;95128.38;5076615;28;20436;-81
2023/10/10 03:30:24;;;;;;;12.60;4.87;;;;;;;15.44;67.05;95130.09;5076101;28;20852;-81
2023/10/10 03:33:16;;;;;;;9.50;5.10;;;;;;;15.53;66.70;95128.34;5076601;28;20531;-81
2023/10/10 03:38:58;;;;;;;10.10;5.00;;;;;;;15.64;66.62;95132.59;5033863;28;20431;-82
2023/10/10 05:25:51;;;;;;;10.30;6.00;;;;;;;17.59;66.36;95200.41;4915096;29;20478;-77
2023/10/10 05:28:19;;;;;;;9.03;4.90;;;;;;;17.60;66.00;95198.56;4916561;29;20452;-78
2023/10/10 05:30:47;;;;;;;7.80;4.20;;;;;;;17.60;66.16;95196.75;4963953;28;20477;-78
2023/10/10 05:33:19;;;;;;;17.03;5.03;;;;;;;17.59;66.20;95196.91;5004373;28;20509;-78
2023/10/10 05:35:48;;;;;;;10.93;5.03;;;;;;;17.64;65.82;95197.28;5011676;28;20443;-78
2023/10/10 05:38:16;;;;;;;9.50;4.70;;;;;;;17.65;65.90;95204.22;5056091;28;20445;-79
2023/10/10 05:40:46;;;;;;;6.40;4.10;;;;;;;17.65;66.25;95204.22;5073481;28;20444;-76
2023/10/10 05:43:15;;;;;;;10.60;4.47;;;;;;;17.61;66.66;95210.84;5072883;28;20538;-77
2023/10/10 05:45:43;;;;;;;8.10;4.90;;;;;;;17.64;66.56;95207.88;5072107;28;20437;-81
2023/10/10 05:48:09;;;;;;;8.73;4.37;;;;;;;17.60;68.55;95195.91;5072548;28;20451;-80
2023/10/10 05:50:37;;;;;;;17.23;5.93;;;;;;;17.70;79.53;95209.91;5072808;28;20483;-83
2023/10/10 05:53:07;;;;;;;14.20;6.00;;;;;;;17.73;69.18;95206.09;5037133;28;20437;-76
2023/10/10 05:55:34;;;;;;;15.13;5.40;;;;;;;17.75;67.64;95212.06;5072562;28;20856;-79
2023/10/10 05:58:02;;;;;;;20.73;6.53;;;;;;;17.79;70.88;95208.91;5071879;28;20800;-79
2023/10/10 06:00:36;;;;;;;6.23;5.37;;;;;;;17.99;67.96;95201.44;5072220;28;20502;-76
2023/10/10 06:03:03;;;;;;;8.07;4.80;;;;;;;18.18;67.23;95211.66;5072388;28;20870;-76
2023/10/10 06:05:30;;;;;;;14.37;6.37;;;;;;;18.78;64.76;95213.03;5064663;28;20559;-78
2023/10/10 06:07:58;;;;;;;6.63;5.20;;;;;;;18.59;65.08;95208.94;5071527;28;20846;-79
2023/10/10 06:10:31;;;;;;;9.63;4.47;;;;;;;18.52;64.20;95200.81;5072564;28;20441;-79
2023/10/10 06:13:03;;;;;;;13.33;4.73;;;;;;;18.58;64.91;95196.63;5065171;28;20858;-81
2023/10/10 06:15:33;;;;;;;8.17;3.80;;;;;;;18.94;63.29;95202.34;5024341;28;20520;-80
2023/10/10 06:18:08;;;;;;;6.03;3.90;;;;;;;19.18;61.90;95201.38;5072127;28;20443;-80
2023/10/10 06:20:40;;;;;;;18.63;5.10;;;;;;;19.21;61.79;95213.50;5069301;28;20458;-82
2023/10/10 06:23:08;;;;;;;8.23;4.30;;;;;;;19.12;63.54;95205.56;5066055;28;20447;-81
2023/10/10 06:25:38;;;;;;;12.40;3.90;;;;;;;19.04;63.13;95205.59;5052927;28;20469;-80
2023/10/10 06:28:07;;;;;;;12.60;5.87;;;;;;;18.98;62.76;95197.50;5071918;28;20440;-81
2023/10/10 06:30:36;;;;;;;5.90;4.00;;;;;;;18.98;63.32;95208.97;5067739;28;20437;-81
2023/10/10 06:33:14;;;;;;;11.70;4.90;;;;;;;18.99;64.03;95221.25;5020378;28;20429;-80
2023/10/10 06:35:40;;;;;;;8.40;5.17;;;;;;;18.98;62.54;95229.41;5072038;28;20491;-81
2023/10/10 06:38:10;;;;;;;5.77;3.70;;;;;;;19.24;63.14;95227.28;5072219;28;20465;-81
2023/10/10 06:40:42;;;;;;;7.13;4.77;;;;;;;19.34;61.52;95229.72;5072567;28;20461;-82
2023/10/10 06:43:10;;;;;;;9.00;4.10;;;;;;;19.52;61.77;95221.47;5071973;28;20950;-82
2023/10/10 06:45:39;;;;;;;9.93;4.30;;;;;;;19.74;59.89;95229.50;5072243;28;20465;-85
2023/10/10 06:48:08;;;;;;;11.10;4.53;;;;;;;19.84;59.36;95229.25;5072165;28;20506;-81
2023/10/10 06:50:38;;;;;;;8.47;4.73;;;;;;;19.89;60.05;95234.84;5072069;28;20445;-81
2023/10/10 06:53:05;;;;;;;8.30;4.13;;;;;;;19.90;59.66;95225.03;5072545;28;20851;-81
2023/10/10 06:55:37;;;;;;;7.80;5.17;;;;;;;19.90;60.25;95235.69;5071817;28;20512;-81
2023/10/10 06:58:06;;;;;;;7.60;4.00;;;;;;;19.82;59.42;95243.75;5073797;28;20441;-81
2023/10/10 07:00:42;;;;;;;10.30;4.40;;;;;;;19.71;59.93;95240.50;5076487;28;20459;-81
2023/10/10 07:03:10;;;;;;;7.73;4.10;;;;;;;19.63;60.96;95256.50;5075781;28;20509;-81
2023/10/10 07:05:39;;;;;;;14.90;5.17;;;;;;;19.48;61.55;95250.28;5075712;28;20979;-81
2023/10/10 07:08:24;;;;;;;14.03;5.07;;;;;;;19.41;61.59;95255.47;5076159;28;20808;-81
2023/10/10 07:10:53;;;;;;;11.07;4.80;;;;;;;19.35;62.03;95252.66;5075616;28;21061;-83
2023/10/10 07:13:29;;;;;;;10.43;4.77;;;;;;;19.23;62.20;95254.91;5075664;28;20439;-82
2023/10/10 07:15:56;;;;;;;28.00;4.10;;;;;;;19.17;62.60;95255.59;5075541;28;20492;-81
2023/10/10 07:18:25;;;;;;;12.27;6.17;;;;;;;19.14;64.36;95250.63;5075840;28;20447;-81
2023/10/10 07:21:08;;;;;;;16.97;6.37;;;;;;;19.19;63.00;95254.41;5076000;28;20951;-82
2023/10/10 07:23:53;;;;;;;11.47;4.40;;;;;;;19.26;63.72;95259.03;5059390;28;20461;-81
2023/10/10 07:26:20;;;;;;;14.23;4.13;;;;;;;19.36;62.66;95249.00;5075821;28;20457;-81
2023/10/10 07:28:49;;;;;;;8.83;4.60;;;;;;;19.47;64.49;95257.44;5075491;28;20447;-81
2023/10/10 07:31:18;;;;;;;5.10;3.57;;;;;;;19.42;63.02;95245.66;5075865;28;20444;-83
2023/10/10 07:33:54;;;;;;;9.97;4.90;;;;;;;19.47;62.75;95241.47;5075676;28;20468;-81
2023/10/10 07:36:24;;;;;;;9.93;4.97;;;;;;;19.63;62.32;95235.22;5075359;28;20808;-81
2023/10/10 07:38:54;;;;;;;7.60;3.93;;;;;;;19.59;61.18;95235.75;5075559;28;20442;-81
2023/10/10 07:41:21;;;;;;;13.13;4.60;;;;;;;19.53;61.74;95249.75;5075224;28;20545;-81
2023/10/10 07:43:52;;;;;;;9.73;5.53;;;;;;;19.39;62.95;95243.34;5075860;28;20443;-81
2023/10/10 07:46:22;;;;;;;11.83;4.13;;;;;;;19.27;62.26;95242.91;5075372;28;20434;-81
2023/10/10 07:48:53;;;;;;;8.27;4.50;;;;;;;19.19;62.94;95240.28;5075259;28;20941;-81
2023/10/10 07:51:28;;;;;;;10.13;4.60;;;;;;;19.19;63.25;95249.09;5024971;28;20498;-80
2023/10/10 07:54:02;;;;;;;10.37;4.73;;;;;;;19.11;63.65;95243.00;5075242;28;20531;-81
2023/10/10 07:56:31;;;;;;;8.00;4.67;;;;;;;19.10;63.90;95260.78;5075206;28;20449;-82
2023/10/10 07:58:59;;;;;;;13.13;4.93;;;;;;;19.12;65.41;95264.09;5075266;28;20444;-80
2023/10/10 08:01:27;;;;;;;6.90;4.00;;;;;;;19.26;63.72;95272.34;5074916;28;20932;-81
2023/10/10 08:03:54;;;;;;;17.73;5.50;;;;;;;19.44;63.57;95271.09;5074803;28;20934;-81
2023/10/10 08:06:22;;;;;;;7.63;5.70;;;;;;;19.65;62.35;95278.47;5075239;28;20445;-81
2023/10/10 08:09:09;;;;;;;7.57;5.27;;;;;;;19.78;62.14;95280.56;5074311;28;20941;-82
2023/10/10 08:11:36;;;;;;;17.73;5.70;;;;;;;19.96;61.01;95277.63;5058795;28;20453;-81
2023/10/10 08:14:08;;;;;;;8.73;4.20;;;;;;;20.22;61.58;95283.38;5074751;28;20444;-80
2023/10/10 08:16:35;;;;;;;10.67;5.33;;;;;;;20.40;60.72;95269.75;5074974;28;20538;-80
2023/10/10 08:19:06;;;;;;;10.93;4.37;;;;;;;20.44;59.41;95275.56;5074830;28;20443;-81
2023/10/10 08:21:38;;;;;;;14.10;6.50;;;;;;;20.39;59.86;95268.06;5074702;28;20456;-80
2023/10/10 08:24:09;;;;;;;15.07;5.13;;;;;;;20.34;59.79;95273.13;5074472;28;20442;-82
2023/10/10 08:26:41;;;;;;;8.40;4.57;;;;;;;20.26;60.05;95284.69;5074922;28;20457;-80
2023/10/10 08:29:11;;;;;;;11.47;5.40;;;;;;;20.03;60.67;95276.72;5074318;28;20447;-80
2023/10/10 08:31:42;;;;;;;6.80;5.33;;;;;;;19.78;61.36;95270.72;5055976;28;20459;-80
2023/10/10 08:34:09;;;;;;;8.00;5.77;;;;;;;19.57;62.33;95275.84;5074267;28;20515;-80
2023/10/10 08:36:38;;;;;;;10.73;6.43;;;;;;;19.43;62.84;95282.75;5074388;28;20441;-81
2023/10/10 08:39:24;;;;;;;10.20;5.80;;;;;;;19.41;63.13;95281.25;5074554;28;20445;-81
2023/10/10 08:41:52;;;;;;;8.33;5.60;;;;;;;19.39;63.39;95292.09;5074423;28;20478;-81
2023/10/10 08:44:23;;;;;;;10.40;5.87;;;;;;;19.41;63.48;95289.25;5074165;28;20861;-81
2023/10/10 08:46:54;;;;;;;9.27;6.17;;;;;;;19.39;63.87;95291.25;5074113;28;20447;-80
2023/10/10 08:49:21;;;;;;;12.63;5.87;;;;;;;19.34;63.65;95277.63;5076333;28;20930;-78
2023/10/10 08:51:49;;;;;;;13.10;6.27;;;;;;;19.42;63.64;95277.59;5074803;28;20455;-81
2023/10/10 08:54:16;;;;;;;9.63;5.77;;;;;;;19.55;62.98;95269.88;5055260;28;20434;-81
2023/10/10 08:56:59;;;;;;;12.20;6.10;;;;;;;19.76;62.40;95280.75;5073846;28;20436;-82
2023/10/10 08:59:28;;;;;;;15.77;5.97;;;;;;;19.90;62.21;95267.66;5073910;28;20440;-81
2023/10/10 09:01:56;;;;;;;18.20;6.27;;;;;;;19.95;62.00;95278.59;5074128;28;20454;-81
2023/10/10 09:04:30;;;;;;;7.90;5.70;;;;;;;19.91;61.90;95272.78;5074163;28;20505;-80
2023/10/10 09:07:00;;;;;;;7.37;5.47;;;;;;;19.83;62.07;95269.38;5074135;28;20485;-79
2023/10/10 09:09:37;;;;;;;11.63;5.70;;;;;;;19.72;62.69;95271.44;5073810;28;20441;-81
2023/10/10 09:12:12;;;;;;;10.60;5.40;;;;;;;19.53;62.88;95281.69;5073756;28;20450;-80
2023/10/10 09:14:42;;;;;;;14.00;5.00;;;;;;;19.52;63.29;95286.19;5073516;28;20476;-81
2023/10/10 09:17:09;;;;;;;10.57;5.50;;;;;;;19.53;63.59;95293.19;5073812;28;20475;-81
2023/10/10 09:19:47;;;;;;;10.50;6.00;;;;;;;19.42;63.47;95269.59;5073362;28;20472;-80
2023/10/10 09:22:28;;;;;;;6.30;4.70;;;;;;;19.37;63.59;95285.25;5073323;28;20519;-81
2023/10/10 09:24:56;;;;;;;10.43;5.90;;;;;;;19.34;64.60;95281.09;5042169;28;20876;-81
2023/10/10 09:27:27;;;;;;;10.30;4.83;;;;;;;19.42;63.98;95272.28;5073882;28;20502;-81
2023/10/10 09:30:00;;;;;;;6.77;5.73;;;;;;;19.53;63.43;95273.69;5073091;28;20991;-81
2023/10/10 09:32:35;;;;;;;8.83;4.73;;;;;;;19.58;62.97;95279.34;5073369;28;20511;-81
2023/10/10 09:35:05;;;;;;;8.47;4.87;;;;;;;19.60;63.25;95266.69;5073447;28;20574;-82
2023/10/10 09:37:38;;;;;;;10.20;5.70;;;;;;;19.67;62.70;95267.66;5074384;28;20478;-81
2023/10/10 09:40:15;;;;;;;7.00;5.40;;;;;;;19.75;63.32;95273.75;5073501;28;20863;-80
2023/10/10 09:42:53;;;;;;;14.23;5.80;;;;;;;19.88;63.05;95269.66;5073005;28;20838;-81
2023/10/10 09:45:36;;;;;;;5.27;4.57;;;;;;;19.87;62.03;95270.66;5072786;28;20862;-81
2023/10/10 09:48:16;;;;;;;6.07;5.20;;;;;;;19.87;61.83;95276.00;5072731;28;20932;-80
2023/10/10 09:51:07;;;;;;;7.97;4.67;;;;;;;19.91;61.88;95279.94;5053954;28;20442;-81
2023/10/10 09:53:34;;;;;;;11.37;4.63;;;;;;;19.88;61.85;95274.97;5072591;28;20447;-80
2023/10/10 09:56:08;;;;;;;11.13;4.03;;;;;;;19.80;61.47;95268.72;5073221;28;20487;-81
2023/10/10 09:58:41;;;;;;;5.00;3.97;;;;;;;19.82;61.74;95273.88;5072619;28;20441;-81
2023/10/10 10:01:18;;;;;;;6.60;3.90;;;;;;;19.78;61.60;95270.72;5072875;28;20467;-81
2023/10/10 10:03:59;;;;;;;5.20;4.70;;;;;;;19.76;61.79;95271.91;5055067;28;20958;-79
2023/10/10 10:06:52;;;;;;;8.10;4.40;;;;;;;19.69;62.25;95266.47;5072894;28;20449;-81
2023/10/10 10:09:45;;;;;;;6.40;4.30;;;;;;;19.76;62.35;95266.59;5072816;28;20439;-81
2023/10/10 10:12:33;;;;;;;9.63;4.60;;;;;;;19.82;62.25;95265.88;4991148;28;20445;-80
2023/10/10 10:15:18;;;;;;;7.83;4.57;;;;;;;19.87;61.77;95258.19;4990850;28;20489;-80
2023/10/10 10:17:56;;;;;;;10.77;4.13;;;;;;;20.00;61.44;95263.75;4991177;28;20476;-80
2023/10/10 10:20:25;;;;;;;8.80;4.17;;;;;;;20.06;61.74;95255.03;4990832;28;20898;-81
2023/10/10 10:22:53;;;;;;;7.50;3.80;;;;;;;20.16;61.05;95262.78;4991062;28;20443;-80
2023/10/10 10:25:25;;;;;;;10.33;4.93;;;;;;;20.24;60.42;95260.06;4991080;28;20440;-81
2023/10/10 10:28:01;;;;;;;8.40;4.37;;;;;;;20.41;60.52;95255.41;4990834;28;20452;-81
2023/10/10 10:30:46;;;;;;;14.53;4.83;;;;;;;20.50;59.98;95253.50;4990732;28;20437;-80
2023/10/10 10:33:15;;;;;;;7.20;4.70;;;;;;;20.49;59.77;95252.66;4990190;28;20452;-80
2023/10/10 10:36:16;;;;;;;9.50;4.23;;;;;;;20.53;60.87;95253.97;4990398;28;20493;-81
2023/10/10 10:41:41;;;;;;;5.63;3.57;;;;;;;20.42;60.08;95241.91;4990063;28;20475;-80
2023/10/10 10:44:09;;;;;;;9.60;4.50;;;;;;;20.47;59.92;95240.53;4990721;28;20957;-80
2023/10/10 10:46:39;;;;;;;6.20;3.97;;;;;;;20.47;60.16;95235.19;4990860;28;21003;-81
2023/10/10 10:49:13;;;;;;;11.63;4.87;;;;;;;20.49;60.40;95241.16;5019608;28;20878;-80
2023/10/10 10:51:41;;;;;;;10.00;3.77;;;;;;;20.48;59.61;95235.00;5072077;28;20442;-81
2023/10/10 10:54:09;;;;;;;6.63;4.70;;;;;;;20.40;59.61;95235.94;5037445;28;20442;-80
2023/10/10 10:56:38;;;;;;;6.50;4.03;;;;;;;20.37;59.86;95232.78;5072118;28;20493;-80
2023/10/10 10:59:19;;;;;;;6.20;3.83;;;;;;;20.30;60.24;95243.34;5072053;28;20473;-80
2023/10/10 11:01:51;;;;;;;6.43;4.30;;;;;;;20.17;60.51;95237.78;5072024;28;20469;-81
2023/10/10 11:04:42;;;;;;;7.20;4.73;;;;;;;20.19;60.11;95232.25;5072128;28;20440;-81
2023/10/10 11:07:16;;;;;;;5.10;3.10;;;;;;;20.03;60.54;95239.41;5072022;28;20438;-81
2023/10/10 11:09:52;;;;;;;7.60;3.87;;;;;;;19.96;61.49;95242.97;5072191;28;20469;-80
2023/10/10 11:12:28;;;;;;;5.90;3.30;;;;;;;19.89;61.21;95240.19;5071965;28;20452;-81
2023/10/10 11:14:55;;;;;;;9.00;4.47;;;;;;;19.85;61.49;95236.22;5071790;28;20437;-82
2023/10/10 11:17:22;;;;;;;7.20;4.20;;;;;;;19.77;61.23;95239.78;5071975;28;20469;-80
2023/10/10 11:19:55;;;;;;;6.33;4.03;;;;;;;19.77;61.56;95242.44;5071925;28;20474;-81
2023/10/10 11:25:05;;;;;;;6.30;4.23;;;;;;;19.81;62.27;95237.59;5071706;28;20447;-81
2023/10/10 11:27:43;;;;;;;31.33;6.20;;;;;;;19.71;63.18;95243.16;5071741;28;20517;-80
2023/10/10 11:30:11;;;;;;;5.23;4.07;;;;;;;19.64;62.57;95228.06;5039215;28;20530;-80
2023/10/10 11:32:45;;;;;;;8.17;3.47;;;;;;;19.57;62.34;95241.25;5036492;28;20464;-82
2023/10/10 11:35:25;;;;;;;6.50;4.67;;;;;;;19.60;62.82;95238.22;5053241;28;20848;-82
2023/10/10 11:40:33;;;;;;;7.63;3.97;;;;;;;19.69;61.97;95231.88;5072237;28;20441;-82
2023/10/10 11:43:03;;;;;;;6.47;4.00;;;;;;;19.82;61.38;95246.41;5053095;28;20449;-81
2023/10/10 11:45:39;;;;;;;10.00;4.63;;;;;;;19.83;66.33;95245.41;5077656;28;20450;-82
2023/10/10 11:48:12;;;;;;;11.23;4.87;;;;;;;19.64;69.04;95236.88;5075915;28;20917;-81
2023/10/10 11:50:44;;;;;;;9.53;4.97;;;;;;;19.41;69.65;95239.50;5075302;28;20547;-77
2023/10/10 11:53:19;;;;;;;7.00;4.80;;;;;;;19.24;71.30;95239.75;5075206;28;20443;-81
2023/10/10 11:55:47;;;;;;;8.30;5.43;;;;;;;19.00;72.62;95243.34;5024560;28;20475;-78
2023/10/10 11:58:17;;;;;;;9.63;5.57;;;;;;;18.92;73.89;95238.91;5075137;28;20486;-81
2023/10/10 12:00:44;;;;;;;9.17;6.03;;;;;;;18.92;74.53;95238.91;5074857;28;20467;-80
2023/10/10 12:03:12;;;;;;;14.63;6.00;;;;;;;18.89;75.47;95241.91;5074821;28;20438;-80
2023/10/10 12:05:47;;;;;;;10.40;6.47;;;;;;;18.81;75.43;95247.28;5074817;28;20441;-81
2023/10/10 12:08:22;;;;;;;12.93;5.60;;;;;;;18.77;75.25;95243.28;5074619;28;20447;-80
2023/10/10 12:10:52;;;;;;;11.70;5.50;;;;;;;18.87;74.85;95234.13;5074442;28;20522;-75
2023/10/10 12:13:34;;;;;;;7.93;5.57;;;;;;;19.28;72.47;95246.38;5074254;28;20450;-75
2023/10/10 12:16:07;;;;;;;7.63;5.10;;;;;;;19.54;70.91;95241.59;5057358;28;20555;-74
2023/10/10 12:18:34;;;;;;;6.77;4.37;;;;;;;19.78;70.02;95241.44;5075041;28;20440;-75
2023/10/10 12:21:02;;;;;;;7.07;4.90;;;;;;;20.09;68.98;95248.53;5074406;28;20504;-75
2023/10/10 12:23:31;;;;;;;6.00;4.50;;;;;;;20.20;68.67;95242.75;5074367;28;20463;-75
2023/10/10 12:25:59;;;;;;;5.93;4.53;;;;;;;20.41;67.54;95234.91;5074274;28;20445;-75
2023/10/10 12:28:26;;;;;;;14.33;5.50;;;;;;;20.48;66.71;95240.34;5074262;28;20477;-76
2023/10/10 12:30:56;;;;;;;8.77;5.67;;;;;;;20.55;67.08;95237.81;5074345;28;20436;-75
2023/10/10 12:33:24;;;;;;;7.13;5.13;;;;;;;20.65;66.01;95235.69;5074160;28;20476;-79
2023/10/10 12:35:50;;;;;;;5.77;5.10;;;;;;;20.47;66.39;95229.88;5038624;28;20473;-79
2023/10/10 12:38:21;;;;;;;8.10;4.63;;;;;;;20.47;66.78;95233.34;5074313;28;20448;-79
2023/10/10 12:40:50;;;;;;;8.27;5.27;;;;;;;20.27;66.76;95227.72;5073958;28;20498;-79
2023/10/10 12:43:17;;;;;;;7.13;4.73;;;;;;;20.35;67.87;95224.97;5074172;28;20446;-79
2023/10/10 12:45:45;;;;;;;9.53;4.77;;;;;;;20.44;67.07;95227.56;5073934;28;20441;-79
2023/10/10 12:48:20;;;;;;;8.90;5.10;;;;;;;20.22;66.30;95232.72;5073973;28;20448;-76
2023/10/10 12:50:47;;;;;;;10.13;4.53;;;;;;;20.36;67.71;95237.28;5073623;28;20441;-76
2023/10/10 12:53:16;;;;;;;10.00;4.80;;;;;;;20.69;65.34;95236.97;5073639;28;20798;-76
2023/10/10 12:55:48;;;;;;;6.97;4.43;;;;;;;20.87;65.02;95242.78;5073243;28;20491;-76
2023/10/10 12:58:20;;;;;;;9.10;5.00;;;;;;;21.00;64.40;95237.59;5073886;28;20553;-79
2023/10/10 13:00:51;;;;;;;12.10;4.70;;;;;;;21.00;63.94;95234.94;5073672;28;20445;-79
2023/10/10 13:03:19;;;;;;;10.80;6.23;;;;;;;20.91;63.54;95238.72;5073854;28;20523;-79
2023/10/10 13:05:48;;;;;;;9.10;5.70;;;;;;;20.86;64.31;95238.44;5073319;28;20835;-77
2023/10/10 13:08:17;;;;;;;11.53;5.57;;;;;;;20.77;63.59;95233.38;5073641;28;20448;-75
2023/10/10 13:10:45;;;;;;;11.63;5.80;;;;;;;20.55;64.58;95235.13;5073744;28;21030;-82
2023/10/10 13:13:15;;;;;;;12.67;6.37;;;;;;;20.38;65.58;95239.75;5073985;28;20803;-80
2023/10/10 13:15:52;;;;;;;13.50;6.80;;;;;;;20.16;66.27;95225.47;5073201;28;20485;-79
2023/10/10 13:18:20;;;;;;;17.77;6.53;;;;;;;20.14;70.00;95227.47;5056410;28;20444;-82
2023/10/10 13:20:50;;;;;;;12.30;5.20;;;;;;;20.16;66.76;95229.97;5073508;28;20544;-80
2023/10/10 13:23:17;;;;;;;15.10;6.50;;;;;;;20.30;77.71;95229.19;5073358;28;20459;-78
2023/10/10 13:25:48;;;;;;;16.20;7.35;;;;;;;20.61;73.17;95234.41;5072351;28;20435;-78
2023/10/10 13:28:19;;;;;;;12.63;6.00;;;;;;;20.68;69.71;95229.97;5073113;28;20200;-78
2023/10/10 13:30:48;;;;;;;13.43;7.07;;;;;;;20.78;76.40;95229.69;5054850;28;20813;-77
2023/10/10 13:33:15;;;;;;;6.70;5.07;;;;;;;20.85;68.30;95236.78;5071512;28;21502;-78
2023/10/10 13:35:41;;;;;;;16.50;5.23;;;;;;;20.88;65.66;95235.59;5049567;28;20441;-78
2023/10/10 13:38:09;;;;;;;6.53;5.33;;;;;;;20.89;65.65;95231.91;5067960;28;20440;-78
2023/10/10 13:40:44;;;;;;;10.63;5.80;;;;;;;20.82;63.73;95226.50;5072816;28;20453;-78
2023/10/10 13:43:16;;;;;;;9.67;5.50;;;;;;;20.73;63.69;95225.75;5072785;28;20448;-76
2023/10/10 13:45:44;;;;;;;7.60;5.70;;;;;;;20.71;63.45;95232.28;5072726;28;20858;-79
2023/10/10 13:48:14;;;;;;;9.87;5.10;;;;;;;20.64;64.40;95228.69;5072787;28;20445;-77
2023/10/10 13:50:45;;;;;;;13.53;5.13;;;;;;;20.57;65.99;95233.09;5072795;28;20466;-77
2023/10/10 13:53:13;;;;;;;5.90;4.27;;;;;;;20.63;63.59;95232.38;5072727;28;20443;-78
2023/10/10 13:55:41;;;;;;;7.47;4.40;;;;;;;20.58;64.47;95227.59;5037188;28;20450;-77